createdAt,value
2019-05-14T00:02:28.209Z,1.90
2019-05-14T00:04:56.591Z,1.85
2019-05-14T00:07:25.050Z,1.70
2019-05-14T00:09:53.436Z,1.72
2019-05-14T00:12:22.432Z,2.92
2019-05-14T00:14:51.603Z,1.90
2019-05-14T00:17:21.479Z,1.98
2019-05-14T00:20:05.907Z,1.77
2019-05-14T00:22:21.811Z,1.50
2019-05-14T00:24:52.030Z,2.00
2019-05-14T00:27:21.844Z,1.85
2019-05-14T00:29:51.778Z,1.65
2019-05-14T00:32:21.619Z,1.45
2019-05-14T00:34:51.537Z,1.62
2019-05-14T00:37:21.714Z,1.90
2019-05-14T00:39:52.102Z,1.82
2019-05-14T00:42:21.573Z,1.52
2019-05-14T00:44:55.329Z,1.60
2019-05-14T00:47:21.693Z,1.98
2019-05-14T00:49:51.725Z,1.62
2019-05-14T00:52:22.229Z,1.80
2019-05-14T00:54:52.179Z,2.00
2019-05-14T00:57:21.138Z,1.98
2019-05-14T00:59:51.909Z,1.57
2019-05-14T01:02:21.753Z,1.47
2019-05-14T01:04:51.630Z,2.50
2019-05-14T01:07:21.213Z,1.40
2019-05-14T01:09:52.139Z,1.60
2019-05-14T01:12:21.398Z,1.70
2019-05-14T01:14:52.849Z,1.95
2019-05-14T01:17:22.374Z,1.30
2019-05-14T01:19:51.374Z,1.50
2019-05-14T01:22:21.304Z,1.70
2019-05-14T01:24:52.024Z,1.98
2019-05-14T01:27:21.152Z,2.83
2019-05-14T01:29:51.391Z,1.90
2019-05-14T01:32:21.918Z,1.60
2019-05-14T01:34:52.265Z,2.27
2019-05-14T01:37:21.860Z,2.72
2019-05-14T01:39:51.973Z,2.65
2019-05-14T01:42:21.672Z,2.02
2019-05-14T01:44:51.877Z,2.22
2019-05-14T01:47:21.428Z,2.10
2019-05-14T01:49:51.508Z,2.37
2019-05-14T01:52:21.839Z,2.45
2019-05-14T01:54:51.501Z,1.98
2019-05-14T01:57:21.930Z,2.60
2019-05-14T01:59:51.704Z,2.65
2019-05-14T02:02:22.050Z,1.87
2019-05-14T02:04:51.312Z,1.90
2019-05-14T02:07:21.944Z,2.47
2019-05-14T02:09:51.746Z,2.10
2019-05-14T02:12:22.311Z,2.10
2019-05-14T02:14:51.235Z,2.17
2019-05-14T02:17:21.310Z,2.27
2019-05-14T02:19:51.524Z,2.12
2019-05-14T02:22:21.644Z,2.40
2019-05-14T02:24:52.029Z,2.02
2019-05-14T02:27:21.388Z,2.65
2019-05-14T02:29:51.903Z,2.30
2019-05-14T02:32:20.095Z,2.50
2019-05-14T02:34:49.868Z,2.20
2019-05-14T02:37:19.467Z,2.20
2019-05-14T02:39:50.245Z,2.30
2019-05-14T02:42:19.692Z,2.37
2019-05-14T02:44:48.922Z,2.87
2019-05-14T02:47:19.454Z,2.15
2019-05-14T02:49:50.094Z,1.70
2019-05-14T02:52:20.423Z,2.33
2019-05-14T02:54:49.486Z,2.42
2019-05-14T02:57:19.970Z,2.20
2019-05-14T02:59:50.195Z,2.42
2019-05-14T03:02:18.878Z,2.20
2019-05-14T03:04:49.883Z,2.50
2019-05-14T03:07:19.486Z,2.37
2019-05-14T03:09:50.275Z,1.90
2019-05-14T03:12:19.406Z,2.72
2019-05-14T03:14:49.974Z,2.15
2019-05-14T03:17:19.791Z,2.27
2019-05-14T03:19:49.552Z,2.60
2019-05-14T03:22:27.189Z,2.08
2019-05-14T03:24:50.297Z,2.47
2019-05-14T03:27:19.515Z,2.60
2019-05-14T03:29:49.925Z,2.40
2019-05-14T03:34:52.914Z,2.42
2019-05-14T03:37:23.687Z,2.33
2019-05-14T03:39:49.339Z,2.55
2019-05-14T03:42:19.362Z,2.67
2019-05-14T03:44:49.100Z,2.40
2019-05-14T03:47:19.730Z,2.30
2019-05-14T03:49:49.775Z,2.58
2019-05-14T03:52:19.915Z,2.47
2019-05-14T03:54:49.648Z,2.67
2019-05-14T03:57:20.063Z,2.67
2019-05-14T03:59:49.913Z,2.60
2019-05-14T04:02:19.978Z,2.67
2019-05-14T04:04:50.180Z,2.02
2019-05-14T04:07:20.004Z,2.42
2019-05-14T04:09:50.247Z,2.40
2019-05-14T04:12:21.112Z,2.47
2019-05-14T04:14:51.491Z,2.22
2019-05-14T04:17:32.474Z,2.08
2019-05-14T04:19:53.949Z,2.52
2019-05-14T04:22:23.898Z,2.12
2019-05-14T04:24:55.301Z,2.95
2019-05-14T04:27:25.425Z,2.30
2019-05-14T04:29:54.276Z,2.27
2019-05-14T04:32:22.680Z,2.40
2019-05-14T04:34:51.205Z,3.85
2019-05-14T04:37:20.257Z,2.25
2019-05-14T04:39:50.396Z,2.62
2019-05-14T04:42:20.290Z,2.65
2019-05-14T04:44:50.258Z,2.30
2019-05-14T04:47:30.413Z,2.47
2019-05-14T04:49:50.511Z,2.27
2019-05-14T04:52:20.441Z,2.47
2019-05-14T04:54:50.096Z,2.30
2019-05-14T04:57:21.419Z,2.05
2019-05-14T04:59:49.838Z,2.50
2019-05-14T05:02:19.936Z,2.40
2019-05-14T05:04:50.799Z,2.60
2019-05-14T05:07:19.318Z,2.40
2019-05-14T05:09:50.220Z,2.40
2019-05-14T05:12:19.678Z,2.25
2019-05-14T05:14:49.320Z,2.30
2019-05-14T05:17:19.631Z,2.52
2019-05-14T05:19:51.700Z,2.60
2019-05-14T05:22:19.568Z,2.50
2019-05-14T05:24:48.531Z,2.40
2019-05-14T05:27:18.432Z,2.30
2019-05-14T05:29:48.598Z,2.67
2019-05-14T05:32:19.362Z,2.22
2019-05-14T05:34:48.261Z,2.08
2019-05-14T05:37:19.028Z,2.70
2019-05-14T05:39:49.102Z,2.00
2019-05-14T05:42:18.787Z,2.22
2019-05-14T05:44:48.377Z,2.70
2019-05-14T05:47:18.265Z,2.40
2019-05-14T05:49:48.765Z,2.30
2019-05-14T05:52:19.092Z,2.67
2019-05-14T05:54:48.999Z,2.30
2019-05-14T05:57:18.752Z,2.10
2019-05-14T05:59:48.505Z,2.10
2019-05-14T06:02:18.701Z,2.67
2019-05-14T06:04:48.131Z,2.00
2019-05-14T06:07:18.327Z,2.10
2019-05-14T06:09:48.285Z,2.20
2019-05-14T06:12:19.028Z,3.12
2019-05-14T06:14:48.805Z,2.45
2019-05-14T06:17:19.093Z,2.52
2019-05-14T06:19:48.644Z,1.80
2019-05-14T06:22:18.912Z,1.85
2019-05-14T06:24:48.514Z,2.08
2019-05-14T06:27:18.212Z,2.50
2019-05-14T06:29:48.893Z,1.92
2019-05-14T06:32:18.631Z,2.60
2019-05-14T06:34:48.902Z,2.20
2019-05-14T06:37:19.102Z,2.33
2019-05-14T06:39:48.435Z,2.15
2019-05-14T06:42:19.324Z,2.30
2019-05-14T06:44:49.240Z,2.47
2019-05-14T06:47:18.416Z,1.70
2019-05-14T06:49:48.793Z,1.93
2019-05-14T06:52:18.734Z,1.87
2019-05-14T06:54:49.702Z,2.20
2019-05-14T06:57:18.044Z,1.90
2019-05-14T06:59:48.453Z,1.80
2019-05-14T07:02:19.126Z,1.62
2019-05-14T07:04:48.424Z,2.15
2019-05-14T07:07:20.253Z,2.15
2019-05-14T07:09:48.857Z,2.02
2019-05-14T07:12:19.206Z,3.20
2019-05-14T07:14:48.382Z,3.05
2019-05-14T07:17:18.355Z,1.77
2019-05-14T07:19:49.147Z,1.95
2019-05-14T07:22:19.347Z,1.70
2019-05-14T07:24:58.757Z,1.90
2019-05-14T07:27:28.323Z,1.92
2019-05-14T07:29:58.350Z,1.85
2019-05-14T07:32:28.735Z,1.85
2019-05-14T07:34:59.464Z,2.22
2019-05-14T07:37:28.536Z,1.80
2019-05-14T07:39:58.059Z,2.53
2019-05-14T07:42:29.269Z,2.35
2019-05-14T07:44:58.907Z,2.20
2019-05-14T07:47:29.121Z,2.25
2019-05-14T07:49:58.312Z,2.17
2019-05-14T07:52:28.486Z,2.12
2019-05-14T07:54:58.707Z,1.60
2019-05-14T07:57:28.432Z,1.77
2019-05-14T07:59:58.897Z,1.67
2019-05-14T08:02:28.998Z,1.92
2019-05-14T08:04:58.066Z,2.33
2019-05-14T08:07:28.192Z,1.75
2019-05-14T08:09:58.376Z,1.52
2019-05-14T08:12:28.543Z,1.85
2019-05-14T08:15:13.451Z,1.67
2019-05-14T08:17:28.138Z,1.32
2019-05-14T08:19:58.337Z,1.87
2019-05-14T08:22:28.981Z,1.60
2019-05-14T08:24:58.132Z,1.40
2019-05-14T08:27:30.965Z,2.00
2019-05-14T08:29:58.790Z,2.12
2019-05-14T08:32:28.431Z,1.67
2019-05-14T08:34:58.457Z,1.60
2019-05-14T08:37:27.948Z,1.47
2019-05-14T08:39:58.853Z,1.60
2019-05-14T08:42:28.932Z,1.27
2019-05-14T08:44:59.087Z,1.07
2019-05-14T08:47:29.000Z,1.77
2019-05-14T08:49:59.632Z,1.32
2019-05-14T08:52:28.869Z,1.40
2019-05-14T08:55:09.089Z,1.45
2019-05-14T08:57:29.148Z,1.20
2019-05-14T08:59:59.346Z,1.70
2019-05-14T09:02:28.648Z,1.37
2019-05-14T09:05:02.874Z,1.65
2019-05-14T09:07:28.986Z,1.40
2019-05-14T09:10:00.114Z,1.20
2019-05-14T09:12:28.105Z,1.35
2019-05-14T09:14:58.882Z,1.27
2019-05-14T09:17:28.883Z,1.40
2019-05-14T09:20:05.747Z,1.10
2019-05-14T09:22:29.021Z,1.30
2019-05-14T09:24:59.985Z,1.10
2019-05-14T09:27:29.263Z,1.30
2019-05-14T09:29:58.943Z,0.93
2019-05-14T09:32:29.170Z,1.25
2019-05-14T09:34:58.963Z,1.32
2019-05-14T09:37:28.889Z,1.10
2019-05-14T09:39:58.427Z,0.93
2019-05-14T09:42:28.650Z,1.05
2019-05-14T09:44:59.515Z,1.45
2019-05-14T09:47:28.303Z,1.35
2019-05-14T09:49:59.708Z,1.10
2019-05-14T09:52:29.335Z,1.60
2019-05-14T09:54:58.557Z,1.35
2019-05-14T09:57:28.217Z,1.57
2019-05-14T09:59:58.613Z,1.57
2019-05-14T10:02:26.897Z,1.75
2019-05-14T10:04:55.315Z,1.20
2019-05-14T10:07:23.717Z,1.90
2019-05-14T10:09:52.112Z,1.52
2019-05-14T10:12:20.511Z,1.25
2019-05-14T10:14:50.383Z,1.32
2019-05-14T10:17:20.660Z,1.70
2019-05-14T10:19:52.425Z,1.10
2019-05-14T10:22:21.387Z,1.10
2019-05-14T10:24:49.964Z,1.30
2019-05-14T10:27:18.938Z,1.00
2019-05-14T10:29:48.255Z,1.30
2019-05-14T10:32:18.654Z,1.37
2019-05-14T10:34:48.476Z,1.12
2019-05-14T10:37:19.221Z,1.50
2019-05-14T10:39:47.642Z,1.00
2019-05-14T10:42:19.843Z,1.22
2019-05-14T10:44:46.704Z,1.15
2019-05-14T10:47:15.095Z,1.02
2019-05-14T10:49:43.727Z,1.00
2019-05-14T10:52:12.408Z,1.15
2019-05-14T10:54:54.997Z,1.12
2019-05-14T10:57:10.925Z,1.30
2019-05-14T10:59:39.296Z,1.20
2019-05-14T11:02:11.666Z,1.10
2019-05-14T11:04:38.930Z,1.30
2019-05-14T11:07:09.243Z,1.10
2019-05-14T11:09:38.256Z,1.02
2019-05-14T11:12:08.799Z,1.00
2019-05-14T11:14:38.723Z,1.30
2019-05-14T11:17:11.377Z,1.00
2019-05-14T11:19:39.019Z,1.17
2019-05-14T11:22:08.486Z,1.52
2019-05-14T11:24:38.601Z,0.90
2019-05-14T11:27:07.212Z,1.32
2019-05-14T11:29:35.608Z,2.52
2019-05-14T11:32:03.983Z,1.22
2019-05-14T11:34:32.393Z,0.95
2019-05-14T11:37:00.772Z,1.45
2019-05-14T11:39:29.453Z,1.20
2019-05-14T11:41:59.069Z,1.17
2019-05-14T11:44:28.556Z,0.80
2019-05-14T11:46:59.307Z,1.20
2019-05-14T11:49:27.369Z,1.15
2019-05-14T11:52:04.319Z,1.45
2019-05-14T11:54:25.881Z,1.00
2019-05-14T11:56:54.268Z,0.75
2019-05-14T11:59:22.673Z,0.90
2019-05-14T12:01:55.116Z,0.80
2019-05-14T12:04:23.320Z,0.80
2019-05-14T12:06:51.704Z,0.90
2019-05-14T12:09:20.098Z,0.70
2019-05-14T12:11:48.477Z,0.90
2019-05-14T12:14:18.986Z,1.17
2019-05-14T12:16:49.398Z,0.70
2019-05-14T12:19:18.806Z,0.78
2019-05-14T12:22:02.307Z,0.90
2019-05-14T12:24:18.472Z,0.82
2019-05-14T12:26:49.047Z,0.80
2019-05-14T12:29:17.104Z,0.78
2019-05-14T12:31:45.473Z,1.00
2019-05-14T12:34:13.872Z,0.70
2019-05-14T12:36:42.297Z,0.80
2019-05-14T12:39:10.700Z,0.80
2019-05-14T12:41:39.167Z,0.80
2019-05-14T12:44:09.292Z,1.15
2019-05-14T12:49:05.608Z,1.45
2019-05-14T12:51:34.048Z,0.60
2019-05-14T12:54:02.442Z,1.10
2019-05-14T12:56:30.829Z,0.45
2019-05-14T12:58:59.210Z,0.72
2019-05-14T13:01:27.608Z,0.60
2019-05-14T13:03:56.061Z,1.00
2019-05-14T13:06:24.453Z,1.02
2019-05-14T13:08:52.837Z,0.80
2019-05-14T13:11:21.240Z,0.80
2019-05-14T13:13:49.639Z,0.90
2019-05-14T13:16:19.235Z,0.80
2019-05-14T13:18:49.826Z,1.00
2019-05-14T13:21:19.184Z,0.88
2019-05-14T13:23:48.718Z,0.67
2019-05-14T13:26:18.936Z,0.77
2019-05-14T13:28:50.716Z,0.78
2019-05-14T13:31:18.277Z,0.75
2019-05-14T13:33:48.906Z,0.62
2019-05-14T13:36:20.252Z,0.82
2019-05-14T13:38:49.035Z,0.90
2019-05-14T13:41:19.246Z,0.80
2019-05-14T13:43:50.451Z,0.70
2019-05-14T13:46:19.010Z,0.80
2019-05-14T13:48:49.899Z,0.80
2019-05-14T13:51:19.495Z,1.27
2019-05-14T13:53:49.919Z,1.05
2019-05-14T13:56:18.878Z,0.70
2019-05-14T13:58:48.819Z,0.70
2019-05-14T14:01:19.264Z,0.90
2019-05-14T14:04:02.185Z,0.93
2019-05-14T14:06:20.845Z,0.60
2019-05-14T14:08:48.829Z,0.60
2019-05-14T14:11:19.480Z,0.78
2019-05-14T14:13:48.989Z,1.00
2019-05-14T14:16:19.542Z,0.80
2019-05-14T14:18:50.021Z,0.68
2019-05-14T14:21:19.658Z,0.68
2019-05-14T14:23:49.530Z,0.88
2019-05-14T14:26:18.741Z,0.80
2019-05-14T14:28:49.305Z,0.80
2019-05-14T14:31:18.917Z,0.70
2019-05-14T14:33:48.670Z,0.80
2019-05-14T14:36:19.894Z,1.00
2019-05-14T14:38:49.559Z,0.90
2019-05-14T14:41:19.366Z,0.90
2019-05-14T14:43:53.763Z,0.80
2019-05-14T14:46:19.611Z,0.68
2019-05-14T14:48:49.324Z,1.67
2019-05-14T14:51:19.288Z,1.10
2019-05-14T14:53:58.983Z,1.25
2019-05-14T14:56:18.890Z,0.53
2019-05-14T14:58:49.327Z,0.78
2019-05-14T15:01:19.514Z,0.80
2019-05-14T15:03:49.621Z,0.98
2019-05-14T15:06:17.960Z,0.78
2019-05-14T15:08:49.400Z,0.78
2019-05-14T15:11:16.484Z,0.82
2019-05-14T15:13:44.877Z,0.90
2019-05-14T15:16:14.102Z,0.90
2019-05-14T15:18:42.655Z,0.90
2019-05-14T15:21:11.051Z,1.57
2019-05-14T15:23:43.162Z,1.25
2019-05-14T15:26:12.109Z,0.80
2019-05-14T15:28:39.994Z,1.10
2019-05-14T15:31:08.984Z,0.70
2019-05-14T15:33:37.542Z,1.07
2019-05-14T15:36:08.679Z,1.35
2019-05-14T15:38:36.051Z,0.65
2019-05-14T15:41:04.416Z,1.07
2019-05-14T15:43:34.248Z,0.95
2019-05-14T15:46:02.639Z,0.75
2019-05-14T15:48:31.042Z,0.70
2019-05-14T15:51:00.072Z,0.80
2019-05-14T15:53:29.126Z,1.10
2019-05-14T15:55:57.672Z,0.60
2019-05-14T15:58:26.081Z,0.80
2019-05-14T16:00:54.465Z,0.75
2019-05-14T16:03:22.849Z,0.90
2019-05-14T16:05:51.268Z,1.00
2019-05-14T16:08:22.714Z,0.60
2019-05-14T16:10:49.772Z,0.70
2019-05-14T16:13:20.860Z,0.80
2019-05-14T16:15:48.450Z,0.78
2019-05-14T16:18:19.752Z,0.60
2019-05-14T16:20:49.812Z,0.80
2019-05-14T16:23:18.762Z,0.70
2019-05-14T16:25:48.352Z,1.12
2019-05-14T16:28:19.577Z,0.80
2019-05-14T16:30:49.660Z,0.62
2019-05-14T16:33:18.679Z,0.90
2019-05-14T16:35:48.537Z,0.75
2019-05-14T16:38:17.157Z,0.98
2019-05-14T16:40:45.557Z,0.90
2019-05-14T16:43:13.935Z,0.82
2019-05-14T16:45:42.601Z,0.80
2019-05-14T16:48:11.232Z,0.80
2019-05-14T16:50:39.675Z,0.93
2019-05-14T16:53:11.592Z,0.70
2019-05-14T16:55:38.483Z,0.80
2019-05-14T16:58:08.991Z,0.60
2019-05-14T17:00:37.186Z,0.80
2019-05-14T17:03:05.564Z,0.60
2019-05-14T17:05:33.957Z,0.60
2019-05-14T17:08:02.349Z,0.47
2019-05-14T17:10:30.755Z,0.85
2019-05-14T17:13:01.731Z,1.05
2019-05-14T17:15:29.256Z,0.90
2019-05-14T17:17:59.688Z,0.70
2019-05-14T17:20:27.766Z,0.70
2019-05-14T17:22:56.158Z,0.78
2019-05-14T17:25:27.002Z,0.80
2019-05-14T17:27:54.655Z,0.70
2019-05-14T17:30:23.061Z,0.82
2019-05-14T17:32:51.474Z,0.98
2019-05-14T17:35:19.863Z,0.70
2019-05-14T17:37:48.476Z,0.72
2019-05-14T17:40:17.357Z,0.75
2019-05-14T17:42:48.524Z,0.80
2019-05-14T17:45:15.858Z,0.88
2019-05-14T17:47:44.258Z,0.62
2019-05-14T17:50:12.784Z,0.70
2019-05-14T17:52:44.200Z,0.62
2019-05-14T17:55:12.448Z,0.88
2019-05-14T17:57:45.882Z,0.80
2019-05-14T18:00:11.709Z,1.05
2019-05-14T18:02:40.408Z,0.95
2019-05-14T18:05:09.582Z,0.80
2019-05-14T18:07:38.212Z,0.68
2019-05-14T18:10:09.831Z,0.75
2019-05-14T18:12:39.850Z,0.80
2019-05-14T18:15:08.876Z,1.05
2019-05-14T18:17:39.279Z,0.90
2019-05-14T18:22:42.172Z,1.07
2019-05-14T18:25:07.757Z,0.78
2019-05-14T18:27:38.807Z,1.20
2019-05-14T18:30:09.303Z,0.80
2019-05-14T18:32:37.760Z,0.78
2019-05-14T18:35:06.312Z,1.27
2019-05-14T18:37:34.711Z,1.40
2019-05-14T18:40:04.356Z,1.07
2019-05-14T18:42:34.024Z,1.33
2019-05-14T18:45:02.485Z,1.30
2019-05-14T18:47:30.881Z,1.55
2019-05-14T18:49:59.666Z,1.32
2019-05-14T18:52:29.640Z,1.40
2019-05-14T18:54:58.993Z,1.35
2019-05-14T18:57:28.747Z,1.77
2019-05-14T18:59:57.311Z,1.53
2019-05-14T19:02:29.079Z,1.40
2019-05-14T19:04:57.891Z,1.20
2019-05-14T19:07:28.771Z,1.60
2019-05-14T19:09:58.682Z,1.22
2019-05-14T19:12:28.987Z,1.32
2019-05-14T19:14:59.040Z,1.35
2019-05-14T19:17:28.417Z,1.77
2019-05-14T19:19:58.913Z,1.12
2019-05-14T19:22:28.761Z,1.82
2019-05-14T19:24:58.720Z,1.45
2019-05-14T19:27:28.640Z,1.60
2019-05-14T19:29:59.517Z,1.12
2019-05-14T19:32:28.281Z,1.42
2019-05-14T19:34:56.991Z,1.02
2019-05-14T19:37:25.387Z,0.90
2019-05-14T19:39:53.768Z,1.30
2019-05-14T19:42:22.144Z,0.88
2019-05-14T19:44:50.541Z,1.37
2019-05-14T19:47:18.940Z,0.80
2019-05-14T19:49:49.116Z,1.47
2019-05-14T19:52:17.441Z,1.95
2019-05-14T19:54:46.157Z,2.77
2019-05-14T19:57:19.148Z,2.05
2019-05-14T19:59:49.182Z,1.47
2019-05-14T20:02:18.447Z,2.10
2019-05-14T20:04:46.979Z,1.60
2019-05-14T20:07:15.352Z,1.22
2019-05-14T20:09:43.740Z,1.10
2019-05-14T20:12:12.121Z,1.10
2019-05-14T20:14:40.524Z,1.55
2019-05-14T20:17:09.063Z,1.10
2019-05-14T20:19:39.633Z,1.37
2019-05-14T20:22:07.785Z,1.35
2019-05-14T20:24:36.230Z,1.35
2019-05-14T20:27:11.344Z,0.90
2019-05-14T20:29:35.041Z,1.60
2019-05-14T20:32:03.437Z,0.90
2019-05-14T20:34:31.822Z,1.30
2019-05-14T20:37:00.222Z,1.70
2019-05-14T20:39:29.450Z,1.57
2019-05-14T20:41:58.740Z,1.12
2019-05-14T20:44:27.976Z,1.92
2019-05-14T20:46:58.347Z,1.10
2019-05-14T20:49:28.377Z,1.22
2019-05-14T20:51:59.383Z,1.10
2019-05-14T20:54:29.009Z,1.07
2019-05-14T20:56:58.608Z,1.17
2019-05-14T20:59:28.277Z,1.37
2019-05-14T21:01:58.802Z,0.88
2019-05-14T21:04:28.228Z,1.15
2019-05-14T21:06:58.632Z,1.05
2019-05-14T21:09:28.812Z,1.07
2019-05-14T21:11:57.258Z,0.80
2019-05-14T21:14:25.678Z,0.70
2019-05-14T21:16:54.061Z,0.90
2019-05-14T21:19:22.522Z,0.70
2019-05-14T21:21:51.004Z,1.00
2019-05-14T21:24:21.765Z,0.82
2019-05-14T21:26:49.585Z,1.05
2019-05-14T21:29:18.250Z,0.85
2019-05-14T21:31:46.640Z,0.90
2019-05-14T21:34:16.592Z,0.90
2019-05-14T21:36:46.627Z,1.30
2019-05-14T21:39:15.075Z,1.12
2019-05-14T21:41:43.779Z,0.78
2019-05-14T21:44:12.165Z,0.93
2019-05-14T21:46:40.560Z,0.93
2019-05-14T21:49:10.992Z,1.10
2019-05-14T21:51:39.343Z,1.60
2019-05-14T21:54:09.468Z,1.00
2019-05-14T21:56:38.726Z,1.27
2019-05-14T21:59:09.640Z,1.50
2019-05-14T22:01:39.265Z,1.50
2019-05-14T22:04:08.759Z,1.35
2019-05-14T22:06:41.158Z,1.30
2019-05-14T22:09:08.715Z,1.30
2019-05-14T22:11:39.334Z,1.00
2019-05-14T22:14:08.007Z,1.35
2019-05-14T22:16:38.156Z,1.47
2019-05-14T22:19:08.508Z,1.50
2019-05-14T22:21:41.351Z,1.17
2019-05-14T22:24:07.281Z,1.10
2019-05-14T22:26:35.704Z,1.12
2019-05-14T22:29:04.531Z,1.60
2019-05-14T22:31:32.911Z,1.00
2019-05-14T22:34:01.304Z,1.47
2019-05-14T22:36:29.689Z,1.75
2019-05-14T22:38:58.084Z,1.40
2019-05-14T22:41:28.889Z,1.37
2019-05-14T22:43:59.329Z,1.60
2019-05-14T22:46:26.693Z,1.22
2019-05-14T22:48:55.088Z,1.30
2019-05-14T22:51:23.473Z,2.33
2019-05-14T22:53:53.542Z,1.37
2019-05-14T22:56:21.920Z,1.10
2019-05-14T22:58:50.608Z,1.40
2019-05-14T23:01:18.991Z,1.40
2019-05-14T23:03:48.920Z,1.30
2019-05-14T23:06:18.737Z,1.22
2019-05-14T23:08:48.675Z,1.37
2019-05-14T23:11:19.843Z,1.12
2019-05-14T23:13:48.942Z,1.12
2019-05-14T23:16:30.934Z,1.42
2019-05-14T23:18:48.759Z,1.10
2019-05-14T23:21:17.403Z,2.55
2019-05-14T23:23:45.781Z,2.17
2019-05-14T23:26:14.466Z,1.90
2019-05-14T23:28:45.908Z,2.10
2019-05-14T23:31:12.953Z,2.00
2019-05-14T23:33:41.361Z,1.60
2019-05-14T23:36:09.864Z,1.70
2019-05-14T23:38:39.186Z,1.17
2019-05-14T23:41:08.730Z,2.42
2019-05-14T23:43:39.109Z,1.45
2019-05-14T23:46:09.450Z,1.90
2019-05-14T23:48:39.123Z,1.60
2019-05-14T23:51:08.194Z,1.30
2019-05-14T23:53:38.981Z,1.50
2019-05-14T23:56:08.585Z,1.55
2019-05-14T23:58:36.970Z,1.60
